Terminal Aerodrome Forecast
Issued by NWS

Home | Current Version | Previous Version | Text Only | Print | Product List | Glossary Off
Versions: 1 2 3 4 5 6 7 8 9 10 11 12 13 14 15 16 17 18 19 20 21

000
FTUS45 KGGW 252300
TAFGDV
TAF
KGDV 252329Z 2600/2624 VRB06KT P6SM SCT150
     FM260600 VRB04KT P6SM VCSH OVC040
     FM261100 35007KT P6SM OVC060
     FM261800 05007KT P6SM BKN080
      AMD LTD TO CLD VIS AND WIND=

USA.gov is the U.S. government's official web portal to all federal, state and local government web resources and services.